sensor_id;sensor_type;location;lat;lon;timestamp;pressure;altitude;pressure_sealevel;temperature;humidity
35918;BME280;22011;59.912;30.300;2022-11-24T00:01:11;101907.56;;;-1.20;63.55
35918;BME280;22011;59.912;30.300;2022-11-24T00:03:40;101902.34;;;-1.20;63.08
35918;BME280;22011;59.912;30.300;2022-11-24T00:06:09;101907.63;;;-1.21;61.97
35918;BME280;22011;59.912;30.300;2022-11-24T00:08:38;101906.00;;;-1.24;62.13
35918;BME280;22011;59.912;30.300;2022-11-24T00:11:08;101897.34;;;-1.26;62.14
35918;BME280;22011;59.912;30.300;2022-11-24T00:13:36;101901.50;;;-1.20;62.06
35918;BME280;22011;59.912;30.300;2022-11-24T00:16:10;101900.34;;;-1.13;62.86
35918;BME280;22011;59.912;30.300;2022-11-24T00:18:39;101899.25;;;-1.29;62.51
35918;BME280;22011;59.912;30.300;2022-11-24T00:21:07;101902.91;;;-1.34;62.07
35918;BME280;22011;59.912;30.300;2022-11-24T00:23:34;101905.75;;;-1.40;62.27
35918;BME280;22011;59.912;30.300;2022-11-24T00:26:03;101902.84;;;-1.32;62.57
35918;BME280;22011;59.912;30.300;2022-11-24T00:28:32;101901.75;;;-1.26;62.27
35918;BME280;22011;59.912;30.300;2022-11-24T00:31:00;101906.19;;;-1.28;62.09
35918;BME280;22011;59.912;30.300;2022-11-24T00:33:29;101912.06;;;-1.23;62.48
35918;BME280;22011;59.912;30.300;2022-11-24T00:35:57;101909.53;;;-1.25;62.32
35918;BME280;22011;59.912;30.300;2022-11-24T00:38:25;101914.88;;;-1.28;62.97
35918;BME280;22011;59.912;30.300;2022-11-24T00:40:53;101908.72;;;-1.27;62.36
35918;BME280;22011;59.912;30.300;2022-11-24T00:43:21;101910.50;;;-1.27;62.22
35918;BME280;22011;59.912;30.300;2022-11-24T00:45:48;101924.41;;;-1.27;62.32
35918;BME280;22011;59.912;30.300;2022-11-24T00:48:16;101919.97;;;-1.25;62.67
35918;BME280;22011;59.912;30.300;2022-11-24T00:50:54;101924.97;;;-1.19;63.39
35918;BME280;22011;59.912;30.300;2022-11-24T00:53:22;101918.53;;;-1.32;62.73
35918;BME280;22011;59.912;30.300;2022-11-24T00:55:49;101918.88;;;-1.41;63.33
35918;BME280;22011;59.912;30.300;2022-11-24T00:58:17;101911.47;;;-1.30;62.96
35918;BME280;22011;59.912;30.300;2022-11-24T01:00:45;101915.00;;;-1.31;62.57
35918;BME280;22011;59.912;30.300;2022-11-24T01:03:12;101909.81;;;-1.33;62.47
35918;BME280;22011;59.912;30.300;2022-11-24T01:05:40;101913.16;;;-1.29;62.49
35918;BME280;22011;59.912;30.300;2022-11-24T01:08:09;101913.78;;;-1.22;62.39
35918;BME280;22011;59.912;30.300;2022-11-24T01:10:37;101911.34;;;-1.27;61.95
35918;BME280;22011;59.912;30.300;2022-11-24T01:13:05;101908.78;;;-1.28;62.03
35918;BME280;22011;59.912;30.300;2022-11-24T01:15:33;101910.75;;;-1.34;62.09
35918;BME280;22011;59.912;30.300;2022-11-24T01:18:01;101915.41;;;-1.42;62.02
35918;BME280;22011;59.912;30.300;2022-11-24T01:20:29;101917.31;;;-1.45;62.26
35918;BME280;22011;59.912;30.300;2022-11-24T01:22:56;101913.03;;;-1.48;62.49
35918;BME280;22011;59.912;30.300;2022-11-24T01:25:25;101914.88;;;-1.50;62.77
35918;BME280;22011;59.912;30.300;2022-11-24T01:27:53;101914.25;;;-1.56;63.04
35918;BME280;22011;59.912;30.300;2022-11-24T01:30:20;101909.81;;;-1.54;63.01
35918;BME280;22011;59.912;30.300;2022-11-24T01:32:48;101917.53;;;-1.51;62.65
35918;BME280;22011;59.912;30.300;2022-11-24T01:35:15;101922.66;;;-1.48;62.83
35918;BME280;22011;59.912;30.300;2022-11-24T01:37:43;101920.72;;;-1.43;62.85
35918;BME280;22011;59.912;30.300;2022-11-24T01:40:11;101913.78;;;-1.44;62.34
35918;BME280;22011;59.912;30.300;2022-11-24T01:42:47;101912.50;;;-1.34;63.09
35918;BME280;22011;59.912;30.300;2022-11-24T01:45:32;101906.38;;;-1.33;63.72
35918;BME280;22011;59.912;30.300;2022-11-24T01:48:02;101903.44;;;-1.47;62.65
35918;BME280;22011;59.912;30.300;2022-11-24T01:50:32;101899.19;;;-1.50;62.71
35918;BME280;22011;59.912;30.300;2022-11-24T01:53:02;101904.47;;;-1.51;62.77
35918;BME280;22011;59.912;30.300;2022-11-24T01:55:34;101896.50;;;-1.48;63.44
35918;BME280;22011;59.912;30.300;2022-11-24T01:58:05;101900.09;;;-1.51;63.58
35918;BME280;22011;59.912;30.300;2022-11-24T02:00:35;101903.81;;;-1.56;63.22
35918;BME280;22011;59.912;30.300;2022-11-24T02:03:05;101909.94;;;-1.57;63.28
35918;BME280;22011;59.912;30.300;2022-11-24T02:05:36;101914.13;;;-1.53;63.86
35918;BME280;22011;59.912;30.300;2022-11-24T02:08:15;101912.06;;;-1.45;63.75
35918;BME280;22011;59.912;30.300;2022-11-24T02:10:45;101912.38;;;-1.53;63.31
35918;BME280;22011;59.912;30.300;2022-11-24T02:13:14;101906.19;;;-1.50;63.55
35918;BME280;22011;59.912;30.300;2022-11-24T02:15:41;101912.19;;;-1.48;63.32
35918;BME280;22011;59.912;30.300;2022-11-24T02:18:09;101919.25;;;-1.50;63.29
35918;BME280;22011;59.912;30.300;2022-11-24T02:20:36;101920.16;;;-1.51;63.13
35918;BME280;22011;59.912;30.300;2022-11-24T02:23:09;101916.44;;;-1.46;63.77
35918;BME280;22011;59.912;30.300;2022-11-24T02:25:47;101915.34;;;-1.40;63.41
35918;BME280;22011;59.912;30.300;2022-11-24T02:28:20;101918.75;;;-1.38;63.28
35918;BME280;22011;59.912;30.300;2022-11-24T02:30:49;101922.41;;;-1.42;63.29
35918;BME280;22011;59.912;30.300;2022-11-24T02:33:17;101919.69;;;-1.39;63.24
35918;BME280;22011;59.912;30.300;2022-11-24T02:35:46;101928.50;;;-1.42;62.90
35918;BME280;22011;59.912;30.300;2022-11-24T02:38:14;101924.34;;;-1.47;62.46
35918;BME280;22011;59.912;30.300;2022-11-24T02:40:43;101921.69;;;-1.46;62.82
35918;BME280;22011;59.912;30.300;2022-11-24T02:43:15;101920.88;;;-1.48;62.82
35918;BME280;22011;59.912;30.300;2022-11-24T02:45:45;101920.81;;;-1.46;62.93
35918;BME280;22011;59.912;30.300;2022-11-24T02:48:13;101925.19;;;-1.47;62.90
35918;BME280;22011;59.912;30.300;2022-11-24T02:50:40;101925.94;;;-1.43;62.90
35918;BME280;22011;59.912;30.300;2022-11-24T02:53:08;101926.91;;;-1.46;62.68
35918;BME280;22011;59.912;30.300;2022-11-24T02:55:35;101938.22;;;-1.45;62.77
35918;BME280;22011;59.912;30.300;2022-11-24T02:58:03;101934.06;;;-1.51;62.92
35918;BME280;22011;59.912;30.300;2022-11-24T03:00:30;101937.41;;;-1.47;63.31
35918;BME280;22011;59.912;30.300;2022-11-24T03:02:59;101940.72;;;-1.42;63.07
35918;BME280;22011;59.912;30.300;2022-11-24T03:05:27;101941.63;;;-1.43;63.16
35918;BME280;22011;59.912;30.300;2022-11-24T03:07:54;101946.84;;;-1.43;63.07
35918;BME280;22011;59.912;30.300;2022-11-24T03:10:22;101941.75;;;-1.46;62.84
35918;BME280;22011;59.912;30.300;2022-11-24T03:12:49;101942.09;;;-1.55;62.88
35918;BME280;22011;59.912;30.300;2022-11-24T03:15:17;101950.84;;;-1.56;63.47
35918;BME280;22011;59.912;30.300;2022-11-24T03:17:44;101948.16;;;-1.55;63.31
35918;BME280;22011;59.912;30.300;2022-11-24T03:20:13;101954.06;;;-1.50;63.65
35918;BME280;22011;59.912;30.300;2022-11-24T03:22:41;101957.53;;;-1.49;63.58
35918;BME280;22011;59.912;30.300;2022-11-24T03:25:09;101959.25;;;-1.48;63.25
35918;BME280;22011;59.912;30.300;2022-11-24T03:27:36;101966.91;;;-1.44;63.24
35918;BME280;22011;59.912;30.300;2022-11-24T03:30:04;101962.47;;;-1.42;63.39
35918;BME280;22011;59.912;30.300;2022-11-24T03:32:32;101964.22;;;-1.42;63.94
35918;BME280;22011;59.912;30.300;2022-11-24T03:35:00;101959.13;;;-1.45;63.37
35918;BME280;22011;59.912;30.300;2022-11-24T03:37:29;101959.00;;;-1.42;63.78
35918;BME280;22011;59.912;30.300;2022-11-24T03:39:56;101960.81;;;-1.44;63.53
35918;BME280;22011;59.912;30.300;2022-11-24T03:42:24;101959.84;;;-1.42;63.28
35918;BME280;22011;59.912;30.300;2022-11-24T03:44:51;101958.84;;;-1.38;63.45
35918;BME280;22011;59.912;30.300;2022-11-24T03:47:19;101950.25;;;-1.41;63.27
35918;BME280;22011;59.912;30.300;2022-11-24T03:49:46;101955.47;;;-1.41;63.28
35918;BME280;22011;59.912;30.300;2022-11-24T03:52:14;101961.50;;;-1.39;63.13
35918;BME280;22011;59.912;30.300;2022-11-24T03:54:43;101957.91;;;-1.37;63.38
35918;BME280;22011;59.912;30.300;2022-11-24T03:57:12;101965.81;;;-1.38;63.54
35918;BME280;22011;59.912;30.300;2022-11-24T03:59:40;101969.34;;;-1.39;63.29
35918;BME280;22011;59.912;30.300;2022-11-24T04:02:08;101966.00;;;-1.43;63.24
35918;BME280;22011;59.912;30.300;2022-11-24T04:04:35;101963.50;;;-1.46;63.28
35918;BME280;22011;59.912;30.300;2022-11-24T04:07:03;101967.16;;;-1.50;62.88
35918;BME280;22011;59.912;30.300;2022-11-24T04:09:30;101973.34;;;-1.52;62.87
35918;BME280;22011;59.912;30.300;2022-11-24T04:11:59;101970.50;;;-1.46;62.70
35918;BME280;22011;59.912;30.300;2022-11-24T04:14:44;101973.09;;;-1.46;61.82
35918;BME280;22011;59.912;30.300;2022-11-24T04:17:12;101969.94;;;-1.54;61.79
35918;BME280;22011;59.912;30.300;2022-11-24T04:19:39;101977.72;;;-1.53;62.18
35918;BME280;22011;59.912;30.300;2022-11-24T04:22:07;101975.91;;;-1.51;62.13
35918;BME280;22011;59.912;30.300;2022-11-24T04:24:34;101968.00;;;-1.49;62.26
35918;BME280;22011;59.912;30.300;2022-11-24T04:27:03;101973.22;;;-1.49;61.96
35918;BME280;22011;59.912;30.300;2022-11-24T04:29:31;101971.69;;;-1.55;62.08
35918;BME280;22011;59.912;30.300;2022-11-24T04:31:58;101970.84;;;-1.55;61.65
35918;BME280;22011;59.912;30.300;2022-11-24T04:34:26;101977.84;;;-1.56;61.62
35918;BME280;22011;59.912;30.300;2022-11-24T04:36:53;101973.63;;;-1.60;61.67
35918;BME280;22011;59.912;30.300;2022-11-24T04:39:22;101967.66;;;-1.63;61.68
35918;BME280;22011;59.912;30.300;2022-11-24T04:41:51;101979.75;;;-1.38;61.81
35918;BME280;22011;59.912;30.300;2022-11-24T04:44:21;101969.38;;;-1.62;61.98
35918;BME280;22011;59.912;30.300;2022-11-24T04:46:48;101977.25;;;-1.64;62.01
35918;BME280;22011;59.912;30.300;2022-11-24T04:49:16;101982.53;;;-1.66;62.07
35918;BME280;22011;59.912;30.300;2022-11-24T04:51:44;101975.63;;;-1.67;62.28
35918;BME280;22011;59.912;30.300;2022-11-24T04:54:12;101968.53;;;-1.63;62.61
35918;BME280;22011;59.912;30.300;2022-11-24T04:56:40;101980.63;;;-1.60;61.64
35918;BME280;22011;59.912;30.300;2022-11-24T04:59:11;101973.50;;;-1.57;61.96
35918;BME280;22011;59.912;30.300;2022-11-24T05:01:41;101977.09;;;-1.59;61.96
35918;BME280;22011;59.912;30.300;2022-11-24T05:04:09;101986.81;;;-1.63;61.86
35918;BME280;22011;59.912;30.300;2022-11-24T05:06:37;101980.69;;;-1.62;62.61
35918;BME280;22011;59.912;30.300;2022-11-24T05:09:06;101989.47;;;-1.65;61.71
35918;BME280;22011;59.912;30.300;2022-11-24T05:11:34;101992.16;;;-1.66;61.80
35918;BME280;22011;59.912;30.300;2022-11-24T05:14:01;101994.72;;;-1.65;62.02
35918;BME280;22011;59.912;30.300;2022-11-24T05:16:29;102001.75;;;-1.67;62.04
35918;BME280;22011;59.912;30.300;2022-11-24T05:18:57;102004.41;;;-1.68;62.07
35918;BME280;22011;59.912;30.300;2022-11-24T05:21:26;102008.78;;;-1.69;62.17
35918;BME280;22011;59.912;30.300;2022-11-24T05:23:54;102011.47;;;-1.70;61.83
35918;BME280;22011;59.912;30.300;2022-11-24T05:26:21;102014.97;;;-1.71;62.34
35918;BME280;22011;59.912;30.300;2022-11-24T05:28:48;102014.94;;;-1.70;61.71
35918;BME280;22011;59.912;30.300;2022-11-24T05:31:16;102014.97;;;-1.71;62.01
35918;BME280;22011;59.912;30.300;2022-11-24T05:33:44;102014.81;;;-1.67;62.12
35918;BME280;22011;59.912;30.300;2022-11-24T05:36:13;102022.53;;;-1.63;62.11
35918;BME280;22011;59.912;30.300;2022-11-24T05:38:54;102022.66;;;-1.67;62.17
35918;BME280;22011;59.912;30.300;2022-11-24T05:41:22;102026.97;;;-1.66;62.05
35918;BME280;22011;59.912;30.300;2022-11-24T05:43:49;102033.09;;;-1.67;61.85
35918;BME280;22011;59.912;30.300;2022-11-24T05:46:17;102034.88;;;-1.67;62.07
35918;BME280;22011;59.912;30.300;2022-11-24T05:48:44;102040.72;;;-1.60;61.71
35918;BME280;22011;59.912;30.300;2022-11-24T05:51:13;102038.84;;;-1.57;61.44
35918;BME280;22011;59.912;30.300;2022-11-24T05:53:40;102041.63;;;-1.61;61.30
35918;BME280;22011;59.912;30.300;2022-11-24T05:56:08;102042.72;;;-1.67;61.98
35918;BME280;22011;59.912;30.300;2022-11-24T05:58:35;102045.31;;;-1.67;61.70
35918;BME280;22011;59.912;30.300;2022-11-24T06:01:05;102038.09;;;-1.60;61.25
35918;BME280;22011;59.912;30.300;2022-11-24T06:03:32;102043.56;;;-1.67;61.24
35918;BME280;22011;59.912;30.300;2022-11-24T06:06:00;102046.97;;;-1.65;61.37
35918;BME280;22011;59.912;30.300;2022-11-24T06:08:29;102046.81;;;-1.60;61.84
35918;BME280;22011;59.912;30.300;2022-11-24T06:10:58;102052.13;;;-1.63;61.66
35918;BME280;22011;59.912;30.300;2022-11-24T06:13:42;102048.56;;;-1.60;61.56
35918;BME280;22011;59.912;30.300;2022-11-24T06:16:10;102051.13;;;-1.59;61.58
35918;BME280;22011;59.912;30.300;2022-11-24T06:18:38;102059.94;;;-1.61;61.38
35918;BME280;22011;59.912;30.300;2022-11-24T06:21:06;102059.13;;;-1.63;61.94
35918;BME280;22011;59.912;30.300;2022-11-24T06:23:35;102055.59;;;-1.62;61.71
35918;BME280;22011;59.912;30.300;2022-11-24T06:26:02;102060.09;;;-1.66;61.36
35918;BME280;22011;59.912;30.300;2022-11-24T06:28:30;102067.03;;;-1.65;61.94
35918;BME280;22011;59.912;30.300;2022-11-24T06:31:01;102073.69;;;-1.56;61.99
35918;BME280;22011;59.912;30.300;2022-11-24T06:33:31;102072.66;;;-1.52;62.03
35918;BME280;22011;59.912;30.300;2022-11-24T06:36:00;102077.88;;;-1.52;61.35
35918;BME280;22011;59.912;30.300;2022-11-24T06:38:28;102086.75;;;-1.56;60.85
35918;BME280;22011;59.912;30.300;2022-11-24T06:41:01;102090.03;;;-1.51;61.20
35918;BME280;22011;59.912;30.300;2022-11-24T06:43:29;102092.31;;;-1.66;61.20
35918;BME280;22011;59.912;30.300;2022-11-24T06:45:57;102088.78;;;-1.65;61.15
35918;BME280;22011;59.912;30.300;2022-11-24T06:48:25;102090.50;;;-1.63;61.10
35918;BME280;22011;59.912;30.300;2022-11-24T06:50:56;102096.47;;;-1.60;60.55
35918;BME280;22011;59.912;30.300;2022-11-24T06:53:24;102094.75;;;-1.61;61.11
35918;BME280;22011;59.912;30.300;2022-11-24T06:55:52;102103.50;;;-1.62;61.05
35918;BME280;22011;59.912;30.300;2022-11-24T06:58:24;102094.53;;;-1.55;60.58
35918;BME280;22011;59.912;30.300;2022-11-24T07:00:52;102105.94;;;-1.57;60.43
35918;BME280;22011;59.912;30.300;2022-11-24T07:03:20;102101.56;;;-1.57;60.82
35918;BME280;22011;59.912;30.300;2022-11-24T07:05:47;102101.47;;;-1.54;60.10
35918;BME280;22011;59.912;30.300;2022-11-24T07:08:15;102106.59;;;-1.51;59.80
35918;BME280;22011;59.912;30.300;2022-11-24T07:10:42;102103.28;;;-1.56;59.59
35918;BME280;22011;59.912;30.300;2022-11-24T07:13:10;102103.44;;;-1.60;60.00
35918;BME280;22011;59.912;30.300;2022-11-24T07:15:39;102103.91;;;-1.49;59.83
35918;BME280;22011;59.912;30.300;2022-11-24T07:18:06;102100.41;;;-1.48;59.65
35918;BME280;22011;59.912;30.300;2022-11-24T07:20:34;102103.81;;;-1.46;59.59
35918;BME280;22011;59.912;30.300;2022-11-24T07:23:02;102113.28;;;-1.44;59.39
35918;BME280;22011;59.912;30.300;2022-11-24T07:25:29;102100.28;;;-1.45;59.37
35918;BME280;22011;59.912;30.300;2022-11-24T07:27:57;102116.06;;;-1.48;59.66
35918;BME280;22011;59.912;30.300;2022-11-24T07:30:26;102115.97;;;-1.45;60.09
35918;BME280;22011;59.912;30.300;2022-11-24T07:32:59;102112.13;;;-1.35;59.86
35918;BME280;22011;59.912;30.300;2022-11-24T07:35:26;102112.44;;;-1.44;59.39
35918;BME280;22011;59.912;30.300;2022-11-24T07:37:54;102116.75;;;-1.43;59.03
35918;BME280;22011;59.912;30.300;2022-11-24T07:40:22;102129.84;;;-1.43;59.58
35918;BME280;22011;59.912;30.300;2022-11-24T07:42:50;102133.25;;;-1.41;59.29
35918;BME280;22011;59.912;30.300;2022-11-24T07:45:17;102130.69;;;-1.43;59.32
35918;BME280;22011;59.912;30.300;2022-11-24T07:47:45;102126.38;;;-1.44;59.91
35918;BME280;22011;59.912;30.300;2022-11-24T07:50:14;102112.22;;;-1.38;59.73
35918;BME280;22011;59.912;30.300;2022-11-24T07:52:41;102129.78;;;-1.42;58.84
35918;BME280;22011;59.912;30.300;2022-11-24T07:55:09;102132.41;;;-1.42;59.55
35918;BME280;22011;59.912;30.300;2022-11-24T07:57:36;102138.59;;;-1.44;58.96
35918;BME280;22011;59.912;30.300;2022-11-24T08:00:05;102137.69;;;-1.43;58.76
35918;BME280;22011;59.912;30.300;2022-11-24T08:02:33;102138.47;;;-1.41;58.61
35918;BME280;22011;59.912;30.300;2022-11-24T08:05:00;102131.31;;;-1.36;58.62
35918;BME280;22011;59.912;30.300;2022-11-24T08:07:29;102142.41;;;-1.29;58.60
35918;BME280;22011;59.912;30.300;2022-11-24T08:09:56;102145.19;;;-1.34;58.48
35918;BME280;22011;59.912;30.300;2022-11-24T08:12:24;102150.38;;;-1.33;58.46
35918;BME280;22011;59.912;30.300;2022-11-24T08:14:51;102138.19;;;-1.34;58.39
35918;BME280;22011;59.912;30.300;2022-11-24T08:17:19;102135.75;;;-1.38;58.24
35918;BME280;22011;59.912;30.300;2022-11-24T08:19:46;102136.44;;;-1.33;58.29
35918;BME280;22011;59.912;30.300;2022-11-24T08:22:14;102132.06;;;-1.33;58.24
35918;BME280;22011;59.912;30.300;2022-11-24T08:24:43;102131.00;;;-1.27;58.39
35918;BME280;22011;59.912;30.300;2022-11-24T08:27:13;102134.63;;;-1.31;58.42
35918;BME280;22011;59.912;30.300;2022-11-24T08:29:42;102146.56;;;-1.24;58.67
35918;BME280;22011;59.912;30.300;2022-11-24T08:32:10;102139.41;;;-1.19;58.66
35918;BME280;22011;59.912;30.300;2022-11-24T08:34:38;102140.38;;;-1.21;57.95
35918;BME280;22011;59.912;30.300;2022-11-24T08:37:05;102151.97;;;-1.28;57.96
35918;BME280;22011;59.912;30.300;2022-11-24T08:39:33;102151.91;;;-1.27;58.18
35918;BME280;22011;59.912;30.300;2022-11-24T08:42:02;102151.56;;;-1.18;58.08
35918;BME280;22011;59.912;30.300;2022-11-24T08:44:29;102152.53;;;-1.20;57.73
35918;BME280;22011;59.912;30.300;2022-11-24T08:46:57;102153.38;;;-1.20;57.81
35918;BME280;22011;59.912;30.300;2022-11-24T08:49:25;102160.44;;;-1.22;57.50
35918;BME280;22011;59.912;30.300;2022-11-24T08:51:52;102162.47;;;-1.30;58.12
35918;BME280;22011;59.912;30.300;2022-11-24T08:54:19;102167.75;;;-1.32;58.03
35918;BME280;22011;59.912;30.300;2022-11-24T08:56:48;102164.19;;;-1.29;57.88
35918;BME280;22011;59.912;30.300;2022-11-24T08:59:17;102164.34;;;-1.34;58.08
35918;BME280;22011;59.912;30.300;2022-11-24T09:01:44;102163.50;;;-1.34;58.06
35918;BME280;22011;59.912;30.300;2022-11-24T09:04:12;102176.47;;;-1.31;57.68
35918;BME280;22011;59.912;30.300;2022-11-24T09:06:39;102172.94;;;-1.30;57.64
35918;BME280;22011;59.912;30.300;2022-11-24T09:09:08;102179.75;;;-1.26;58.06
35918;BME280;22011;59.912;30.300;2022-11-24T09:11:36;102179.72;;;-1.24;58.43
35918;BME280;22011;59.912;30.300;2022-11-24T09:14:03;102172.72;;;-1.24;58.53
35918;BME280;22011;59.912;30.300;2022-11-24T09:16:32;102176.69;;;-1.14;57.77
35918;BME280;22011;59.912;30.300;2022-11-24T09:19:03;102165.34;;;-1.13;57.38
35918;BME280;22011;59.912;30.300;2022-11-24T09:21:31;102175.91;;;-1.16;57.33
35918;BME280;22011;59.912;30.300;2022-11-24T09:23:59;102179.53;;;-1.20;57.56
35918;BME280;22011;59.912;30.300;2022-11-24T09:26:28;102188.19;;;-1.18;57.28
35918;BME280;22011;59.912;30.300;2022-11-24T09:28:57;102181.31;;;-1.20;57.19
35918;BME280;22011;59.912;30.300;2022-11-24T09:31:28;102181.47;;;-1.25;57.85
35918;BME280;22011;59.912;30.300;2022-11-24T09:33:57;102179.66;;;-1.23;57.17
35918;BME280;22011;59.912;30.300;2022-11-24T09:36:26;102181.34;;;-1.22;56.96
35918;BME280;22011;59.912;30.300;2022-11-24T09:38:54;102183.97;;;-1.22;56.92
35918;BME280;22011;59.912;30.300;2022-11-24T09:41:45;102176.28;;;-1.03;58.15
35918;BME280;22011;59.912;30.300;2022-11-24T09:44:41;102182.38;;;-1.03;57.74
35918;BME280;22011;59.912;30.300;2022-11-24T09:47:19;102178.34;;;-1.11;58.00
35918;BME280;22011;59.912;30.300;2022-11-24T09:49:57;102185.19;;;-1.07;57.28
35918;BME280;22011;59.912;30.300;2022-11-24T09:52:38;102185.97;;;-1.05;57.54
35918;BME280;22011;59.912;30.300;2022-11-24T09:58:28;102176.91;;;-0.96;57.53
35918;BME280;22011;59.912;30.300;2022-11-24T10:01:02;102188.03;;;-1.13;56.71
35918;BME280;22011;59.912;30.300;2022-11-24T10:03:32;102185.53;;;-1.16;56.99
35918;BME280;22011;59.912;30.300;2022-11-24T10:06:08;102185.34;;;-1.12;57.24
35918;BME280;22011;59.912;30.300;2022-11-24T10:11:34;102172.91;;;-1.05;57.86
35918;BME280;22011;59.912;30.300;2022-11-24T10:14:20;102173.16;;;-0.89;58.00
35918;BME280;22011;59.912;30.300;2022-11-24T10:16:53;102166.50;;;-0.98;57.41
35918;BME280;22011;59.912;30.300;2022-11-24T10:19:33;102162.53;;;-0.85;57.70
35918;BME280;22011;59.912;30.300;2022-11-24T10:22:17;102157.28;;;-0.85;58.25
35918;BME280;22011;59.912;30.300;2022-11-24T10:25:11;102165.97;;;-0.84;58.23
35918;BME280;22011;59.912;30.300;2022-11-24T10:27:42;102166.75;;;-1.04;58.74
35918;BME280;22011;59.912;30.300;2022-11-24T10:30:13;102169.38;;;-1.04;58.41
35918;BME280;22011;59.912;30.300;2022-11-24T10:32:45;102169.28;;;-1.03;58.97
35918;BME280;22011;59.912;30.300;2022-11-24T10:35:16;102179.00;;;-1.05;58.08
35918;BME280;22011;59.912;30.300;2022-11-24T10:37:51;102179.63;;;-1.00;58.53
35918;BME280;22011;59.912;30.300;2022-11-24T10:40:26;102174.41;;;-1.00;58.45
35918;BME280;22011;59.912;30.300;2022-11-24T10:42:57;102171.13;;;-1.05;57.78
35918;BME280;22011;59.912;30.300;2022-11-24T10:45:26;102173.75;;;-1.05;58.22
35918;BME280;22011;59.912;30.300;2022-11-24T10:47:56;102171.91;;;-1.03;58.31
35918;BME280;22011;59.912;30.300;2022-11-24T10:50:25;102171.91;;;-1.03;58.39
35918;BME280;22011;59.912;30.300;2022-11-24T10:53:01;102175.19;;;-0.98;58.21
35918;BME280;22011;59.912;30.300;2022-11-24T10:55:56;102171.78;;;-1.00;58.73
35918;BME280;22011;59.912;30.300;2022-11-24T10:58:25;102175.97;;;-1.17;58.47
35918;BME280;22011;59.912;30.300;2022-11-24T11:00:54;102175.66;;;-0.86;58.54
35918;BME280;22011;59.912;30.300;2022-11-24T11:03:24;102184.44;;;-1.11;58.17
35918;BME280;22011;59.912;30.300;2022-11-24T11:05:53;102179.44;;;-1.17;58.31
35918;BME280;22011;59.912;30.300;2022-11-24T11:08:27;102182.63;;;-1.09;58.64
35918;BME280;22011;59.912;30.300;2022-11-24T11:11:15;102177.03;;;-1.00;58.87
35918;BME280;22011;59.912;30.300;2022-11-24T11:13:49;102182.72;;;-1.12;58.63
35918;BME280;22011;59.912;30.300;2022-11-24T11:16:24;102181.13;;;-1.16;58.68
35918;BME280;22011;59.912;30.300;2022-11-24T11:18:52;102179.66;;;-1.23;58.28
35918;BME280;22011;59.912;30.300;2022-11-24T11:21:33;102173.06;;;-1.10;58.71
35918;BME280;22011;59.912;30.300;2022-11-24T11:24:09;102182.28;;;-1.23;58.24
35918;BME280;22011;59.912;30.300;2022-11-24T11:26:40;102187.88;;;-1.34;58.40
35918;BME280;22011;59.912;30.300;2022-11-24T11:29:14;102184.13;;;-1.26;59.15
35918;BME280;22011;59.912;30.300;2022-11-24T11:31:56;102184.78;;;-1.20;59.44
35918;BME280;22011;59.912;30.300;2022-11-24T11:34:24;102188.50;;;-1.27;58.66
35918;BME280;22011;59.912;30.300;2022-11-24T11:36:53;102182.31;;;-1.24;58.98
35918;BME280;22011;59.912;30.300;2022-11-24T11:39:31;102190.81;;;-1.18;59.18
35918;BME280;22011;59.912;30.300;2022-11-24T11:42:12;102194.84;;;-1.09;59.10
35918;BME280;22011;59.912;30.300;2022-11-24T11:44:43;102187.22;;;-1.15;58.81
35918;BME280;22011;59.912;30.300;2022-11-24T11:47:19;102194.06;;;-1.11;59.01
35918;BME280;22011;59.912;30.300;2022-11-24T11:49:48;102195.34;;;-1.23;59.04
35918;BME280;22011;59.912;30.300;2022-11-24T11:52:40;102195.38;;;-1.01;59.40
35918;BME280;22011;59.912;30.300;2022-11-24T11:55:24;102196.34;;;-1.04;59.39
35918;BME280;22011;59.912;30.300;2022-11-24T11:58:03;102196.50;;;-1.07;58.95
35918;BME280;22011;59.912;30.300;2022-11-24T12:00:35;102192.34;;;-1.12;59.18
35918;BME280;22011;59.912;30.300;2022-11-24T12:03:35;102192.66;;;-0.98;59.49
35918;BME280;22011;59.912;30.300;2022-11-24T12:06:15;102203.66;;;-1.12;59.44
35918;BME280;22011;59.912;30.300;2022-11-24T12:08:54;102195.88;;;-1.13;59.18
35918;BME280;22011;59.912;30.300;2022-11-24T12:11:31;102194.78;;;-1.08;59.30
35918;BME280;22011;59.912;30.300;2022-11-24T12:14:14;102197.34;;;-1.06;59.18
35918;BME280;22011;59.912;30.300;2022-11-24T12:16:51;102202.91;;;-1.15;59.27
35918;BME280;22011;59.912;30.300;2022-11-24T12:19:42;102199.97;;;-1.06;59.47
35918;BME280;22011;59.912;30.300;2022-11-24T12:22:19;102201.25;;;-1.18;59.24
35918;BME280;22011;59.912;30.300;2022-11-24T12:24:56;102195.91;;;-1.15;58.99
35918;BME280;22011;59.912;30.300;2022-11-24T12:27:36;102196.66;;;-1.11;58.84
35918;BME280;22011;59.912;30.300;2022-11-24T12:30:12;102203.88;;;-1.18;58.94
35918;BME280;22011;59.912;30.300;2022-11-24T12:33:06;102189.63;;;-1.09;58.91
35918;BME280;22011;59.912;30.300;2022-11-24T12:35:39;102188.63;;;-1.30;58.81
35918;BME280;22011;59.912;30.300;2022-11-24T12:38:24;102196.19;;;-1.22;59.25
35918;BME280;22011;59.912;30.300;2022-11-24T12:41:17;102191.88;;;-1.23;59.45
35918;BME280;22011;59.912;30.300;2022-11-24T12:43:50;102196.56;;;-1.33;59.10
35918;BME280;22011;59.912;30.300;2022-11-24T12:46:22;102198.34;;;-1.34;59.22
35918;BME280;22011;59.912;30.300;2022-11-24T12:48:58;102198.13;;;-1.27;58.98
35918;BME280;22011;59.912;30.300;2022-11-24T12:51:32;102198.28;;;-1.32;59.33
35918;BME280;22011;59.912;30.300;2022-11-24T12:54:04;102201.13;;;-1.38;59.72
35918;BME280;22011;59.912;30.300;2022-11-24T12:56:36;102201.16;;;-1.40;59.20
35918;BME280;22011;59.912;30.300;2022-11-24T12:59:19;102202.72;;;-1.34;59.75
35918;BME280;22011;59.912;30.300;2022-11-24T13:02:00;102209.81;;;-1.38;59.78
35918;BME280;22011;59.912;30.300;2022-11-24T13:04:35;102203.84;;;-1.41;59.56